createdAt,value
2022-11-29T00:01:06.257Z,3.42
2022-11-29T00:03:50.915Z,3.36
2022-11-29T00:06:35.872Z,3.40
2022-11-29T00:09:19.438Z,3.31
2022-11-29T00:12:12.243Z,3.31
2022-11-29T00:14:55.760Z,3.32
2022-11-29T00:17:39.250Z,3.34
2022-11-29T00:20:23.678Z,3.34
2022-11-29T00:23:07.347Z,3.12
2022-11-29T00:25:50.859Z,3.24
2022-11-29T00:28:35.979Z,3.32
2022-11-29T00:31:30.497Z,3.50
2022-11-29T00:34:14.098Z,3.37
2022-11-29T00:36:57.682Z,3.34
2022-11-29T00:39:41.332Z,3.32
2022-11-29T00:42:24.879Z,3.36
2022-11-29T00:45:09.511Z,3.42
2022-11-29T00:47:53.165Z,3.39
2022-11-29T00:50:36.650Z,3.34
2022-11-29T00:53:20.124Z,3.32
2022-11-29T00:56:05.635Z,3.36
2022-11-29T00:58:49.554Z,3.54
2022-11-29T01:01:33.197Z,3.47
2022-11-29T01:04:17.608Z,3.60
2022-11-29T01:07:01.164Z,3.48
2022-11-29T01:09:44.625Z,3.57
2022-11-29T01:12:28.134Z,3.52
2022-11-29T01:15:11.961Z,3.62
2022-11-29T01:17:55.619Z,3.45
2022-11-29T01:20:39.107Z,3.38
2022-11-29T01:23:22.595Z,3.54
2022-11-29T01:26:11.781Z,3.39
2022-11-29T01:28:57.612Z,3.47
2022-11-29T01:31:41.210Z,3.69
2022-11-29T01:34:24.709Z,3.68
2022-11-29T01:37:08.618Z,3.49
2022-11-29T01:39:52.096Z,3.53
2022-11-29T01:42:35.574Z,3.59
2022-11-29T01:45:26.474Z,3.70
2022-11-29T01:48:12.487Z,3.58
2022-11-29T01:51:01.399Z,3.68
2022-11-29T01:53:45.317Z,3.73
2022-11-29T01:56:32.791Z,3.65
2022-11-29T01:59:29.632Z,3.44
2022-11-29T02:02:28.344Z,3.49
2022-11-29T02:05:17.254Z,3.44
2022-11-29T02:08:02.091Z,3.43
2022-11-29T02:11:09.822Z,3.28
2022-11-29T02:14:22.830Z,3.38
2022-11-29T02:17:18.381Z,3.71
2022-11-29T02:20:23.070Z,3.45
2022-11-29T02:23:25.479Z,3.45
2022-11-29T02:26:48.910Z,3.47
2022-11-29T02:30:05.373Z,3.36
2022-11-29T02:33:12.906Z,3.41
2022-11-29T02:36:27.334Z,3.52
2022-11-29T02:39:16.718Z,3.62
2022-11-29T02:42:54.404Z,3.53
2022-11-29T02:46:23.498Z,3.53
2022-11-29T02:49:28.083Z,3.39
2022-11-29T02:52:35.811Z,3.42
2022-11-29T02:55:44.617Z,3.55
2022-11-29T02:58:58.640Z,3.42
2022-11-29T03:02:08.555Z,3.31
2022-11-29T03:05:17.496Z,3.44
2022-11-29T03:08:25.754Z,3.46
2022-11-29T03:11:30.066Z,3.38
2022-11-29T03:14:28.426Z,3.40
2022-11-29T03:18:09.441Z,3.47
2022-11-29T03:21:22.591Z,3.44
2022-11-29T03:24:23.678Z,3.51
2022-11-29T03:27:16.596Z,3.32
2022-11-29T03:30:07.591Z,3.40
2022-11-29T03:33:09.487Z,3.54
2022-11-29T03:36:14.086Z,3.34
2022-11-29T03:39:07.846Z,3.35
2022-11-29T03:42:06.405Z,3.43
2022-11-29T03:45:15.360Z,3.42
2022-11-29T03:48:40.836Z,3.49
2022-11-29T03:51:59.783Z,3.45
2022-11-29T03:54:56.618Z,3.46
2022-11-29T03:58:10.219Z,3.38
2022-11-29T04:01:11.306Z,3.38
2022-11-29T04:04:36.502Z,3.46
2022-11-29T04:07:54.313Z,3.41
2022-11-29T04:11:05.428Z,3.42
2022-11-29T04:14:33.100Z,3.32
2022-11-29T04:17:42.648Z,3.45
2022-11-29T04:21:12.666Z,3.43
2022-11-29T04:24:10.483Z,3.47
2022-11-29T04:27:49.315Z,3.53
2022-11-29T04:30:57.659Z,3.59
2022-11-29T04:33:59.003Z,3.49
2022-11-29T04:37:13.270Z,3.52
2022-11-29T04:40:48.157Z,3.45
2022-11-29T04:44:05.595Z,3.42
2022-11-29T04:47:07.869Z,3.44
2022-11-29T04:50:19.019Z,3.54
2022-11-29T04:53:52.142Z,3.46
2022-11-29T04:57:17.858Z,3.44
2022-11-29T05:00:12.687Z,3.52
2022-11-29T05:03:04.699Z,3.24
2022-11-29T05:06:17.275Z,3.31
2022-11-29T05:09:36.784Z,3.54
2022-11-29T05:12:35.356Z,3.49
2022-11-29T05:15:55.921Z,3.54
2022-11-29T05:19:37.329Z,3.60
2022-11-29T05:22:32.824Z,3.51
2022-11-29T05:25:46.117Z,3.63
2022-11-29T05:29:01.589Z,3.46
2022-11-29T05:32:39.730Z,3.58
2022-11-29T05:35:53.033Z,3.36
2022-11-29T05:39:02.811Z,3.49
2022-11-29T05:41:55.587Z,3.45
2022-11-29T05:44:49.488Z,3.35
2022-11-29T05:47:47.900Z,3.37
2022-11-29T05:50:45.743Z,3.39
2022-11-29T05:54:08.296Z,3.46
2022-11-29T05:57:29.175Z,3.31
2022-11-29T06:00:16.874Z,3.36
2022-11-29T06:03:06.612Z,3.40
2022-11-29T06:06:01.087Z,3.33
2022-11-29T06:09:23.600Z,3.38
2022-11-29T06:12:21.247Z,3.48
2022-11-29T06:15:17.319Z,3.35
2022-11-29T06:18:32.630Z,3.43
2022-11-29T06:21:40.308Z,3.37
2022-11-29T06:25:01.516Z,3.33
2022-11-29T06:28:08.358Z,3.54
2022-11-29T06:31:21.236Z,3.73
2022-11-29T06:34:20.397Z,3.60
2022-11-29T06:37:35.494Z,3.57
2022-11-29T06:40:19.076Z,3.66
2022-11-29T06:43:03.081Z,3.62
2022-11-29T06:45:57.109Z,3.55
2022-11-29T06:49:02.071Z,3.69
2022-11-29T06:51:58.303Z,3.46
2022-11-29T06:55:02.900Z,3.46
2022-11-29T06:58:46.038Z,3.47
2022-11-29T07:02:24.595Z,3.51
2022-11-29T07:05:25.504Z,3.53
2022-11-29T07:08:22.884Z,3.64
2022-11-29T07:11:06.860Z,3.59
2022-11-29T07:13:51.072Z,3.54
2022-11-29T07:16:59.880Z,3.68
2022-11-29T07:20:18.162Z,3.70
2022-11-29T07:23:14.155Z,3.71
2022-11-29T07:26:36.160Z,3.65
2022-11-29T07:30:13.533Z,3.73
2022-11-29T07:33:05.706Z,3.68
2022-11-29T07:36:09.426Z,3.78
2022-11-29T07:39:15.638Z,3.82
2022-11-29T07:42:31.501Z,3.70
2022-11-29T07:45:32.573Z,3.91
2022-11-29T07:48:17.919Z,3.71
2022-11-29T07:51:02.606Z,3.85
2022-11-29T07:53:48.936Z,3.82
2022-11-29T07:56:32.513Z,3.82
2022-11-29T07:59:16.598Z,3.74
2022-11-29T08:02:00.355Z,3.71
2022-11-29T08:04:47.070Z,3.69
2022-11-29T08:07:31.559Z,3.86
2022-11-29T08:10:17.189Z,3.82
2022-11-29T08:13:00.887Z,4.00
2022-11-29T08:15:48.680Z,4.02
2022-11-29T08:18:32.646Z,3.86
2022-11-29T08:21:18.179Z,4.00
2022-11-29T08:24:01.711Z,4.09
2022-11-29T08:26:45.326Z,4.16
2022-11-29T08:29:28.851Z,4.15
2022-11-29T08:32:12.495Z,4.03
2022-11-29T08:34:56.074Z,4.10
2022-11-29T08:37:39.657Z,4.29
2022-11-29T08:40:24.385Z,4.26
2022-11-29T08:43:08.035Z,4.23
2022-11-29T08:45:54.652Z,4.43
2022-11-29T08:48:38.537Z,4.25
2022-11-29T08:51:22.536Z,4.33
2022-11-29T08:54:06.132Z,4.47
2022-11-29T08:57:38.125Z,4.55
2022-11-29T08:59:53.409Z,4.49
2022-11-29T09:02:38.200Z,4.40
2022-11-29T09:05:21.780Z,4.62
2022-11-29T09:08:05.595Z,4.83
2022-11-29T09:10:49.550Z,4.78
2022-11-29T09:13:33.209Z,4.65
2022-11-29T09:16:23.686Z,4.74
2022-11-29T09:19:08.011Z,4.77
2022-11-29T09:21:51.729Z,4.72
2022-11-29T09:24:35.288Z,4.76
2022-11-29T09:27:18.810Z,4.65
2022-11-29T09:30:02.312Z,5.00
2022-11-29T09:32:46.426Z,5.07
2022-11-29T09:35:30.423Z,4.96
2022-11-29T09:38:15.113Z,5.07
2022-11-29T09:41:21.262Z,5.06
2022-11-29T09:44:46.250Z,4.96
2022-11-29T09:48:08.653Z,4.97
2022-11-29T09:51:30.242Z,5.12
2022-11-29T09:54:56.303Z,5.19
2022-11-29T09:57:44.185Z,5.30
2022-11-29T10:00:30.959Z,5.10
2022-11-29T10:03:33.496Z,5.01
2022-11-29T10:06:41.108Z,5.06
2022-11-29T10:09:33.917Z,5.07
2022-11-29T10:12:38.987Z,5.07
2022-11-29T10:15:32.091Z,5.01
2022-11-29T10:18:38.530Z,5.09
2022-11-29T10:21:32.184Z,5.21
2022-11-29T10:24:21.093Z,5.15
2022-11-29T10:27:22.717Z,5.12
2022-11-29T10:30:17.059Z,5.25
2022-11-29T10:33:00.958Z,5.28
2022-11-29T10:35:47.839Z,5.33
2022-11-29T10:38:32.097Z,5.25
2022-11-29T10:41:22.983Z,5.33
2022-11-29T10:44:06.839Z,5.30
2022-11-29T10:46:51.408Z,5.47
2022-11-29T10:49:37.854Z,5.50
2022-11-29T10:52:23.756Z,5.60
2022-11-29T10:55:14.995Z,5.62
2022-11-29T10:58:13.019Z,5.53
2022-11-29T11:01:07.506Z,5.55
2022-11-29T11:03:57.311Z,5.69
2022-11-29T11:06:56.839Z,5.69
2022-11-29T11:09:49.497Z,5.59
2022-11-29T11:12:35.202Z,5.65
2022-11-29T11:15:24.944Z,5.63
2022-11-29T11:18:22.933Z,5.70
2022-11-29T11:21:12.381Z,5.73
2022-11-29T11:24:03.122Z,5.32
2022-11-29T11:26:46.820Z,5.40
2022-11-29T11:29:52.657Z,5.44
2022-11-29T11:32:37.409Z,5.66
2022-11-29T11:35:24.394Z,5.55
2022-11-29T11:38:17.047Z,5.74
2022-11-29T11:41:17.192Z,5.80
2022-11-29T11:44:04.470Z,5.78
2022-11-29T11:46:52.917Z,5.90
2022-11-29T11:49:47.987Z,5.85
2022-11-29T11:52:54.585Z,5.84
2022-11-29T11:55:43.967Z,5.70
2022-11-29T11:59:00.096Z,5.57
2022-11-29T12:01:44.377Z,5.76
2022-11-29T12:04:36.047Z,6.01
2022-11-29T12:08:10.818Z,5.98
2022-11-29T12:11:07.239Z,5.97
2022-11-29T12:13:58.219Z,5.96
2022-11-29T12:16:45.377Z,5.99
2022-11-29T12:19:42.203Z,5.92
2022-11-29T12:22:41.520Z,6.06
2022-11-29T12:26:34.528Z,5.83
2022-11-29T12:29:22.987Z,5.81
2022-11-29T12:32:41.818Z,5.94
2022-11-29T12:35:51.418Z,6.03
2022-11-29T12:38:51.115Z,6.34
2022-11-29T12:41:56.658Z,5.88
2022-11-29T12:44:58.591Z,5.75
2022-11-29T12:48:22.894Z,5.86
2022-11-29T12:51:39.893Z,5.76
2022-11-29T12:54:52.949Z,5.93
2022-11-29T12:57:55.156Z,5.58
2022-11-29T13:01:19.747Z,5.58
2022-11-29T13:04:33.665Z,5.66
2022-11-29T13:08:33.054Z,5.64
2022-11-29T13:11:42.126Z,5.52
2022-11-29T13:14:46.160Z,5.57
2022-11-29T13:17:51.425Z,5.62
2022-11-29T13:21:25.645Z,5.20
2022-11-29T13:24:36.034Z,5.56
2022-11-29T13:27:33.301Z,5.73
2022-11-29T13:30:17.377Z,5.61
2022-11-29T13:33:48.114Z,5.61
2022-11-29T13:36:54.129Z,5.68
2022-11-29T13:40:05.476Z,5.61
2022-11-29T13:43:12.706Z,5.65
2022-11-29T13:46:43.587Z,5.40
2022-11-29T13:49:57.037Z,5.52
2022-11-29T13:52:47.834Z,5.81
2022-11-29T13:55:31.807Z,5.78
2022-11-29T13:58:17.416Z,5.50
2022-11-29T14:01:14.591Z,5.64
2022-11-29T14:04:07.712Z,5.56
2022-11-29T14:07:19.579Z,5.42
2022-11-29T14:10:17.132Z,5.52
2022-11-29T14:13:01.973Z,5.38
2022-11-29T14:15:57.458Z,5.47
2022-11-29T14:19:06.572Z,5.54
2022-11-29T14:21:59.051Z,5.41
2022-11-29T14:24:55.032Z,5.46
2022-11-29T14:27:56.450Z,5.57
2022-11-29T14:31:02.977Z,5.82
2022-11-29T14:34:12.183Z,5.56
2022-11-29T14:37:21.119Z,5.70
2022-11-29T14:40:27.937Z,5.85
2022-11-29T14:43:37.869Z,5.70
2022-11-29T14:46:33.036Z,5.47
2022-11-29T14:49:26.525Z,5.70
2022-11-29T14:52:16.135Z,5.75
2022-11-29T14:55:06.098Z,5.46
2022-11-29T14:58:15.847Z,5.44
2022-11-29T15:01:09.568Z,5.33
2022-11-29T15:03:56.193Z,5.62
2022-11-29T15:06:47.483Z,5.31
2022-11-29T15:09:38.290Z,5.68
2022-11-29T15:12:27.502Z,5.56
2022-11-29T15:15:48.673Z,5.46
2022-11-29T15:19:02.583Z,5.55
2022-11-29T15:21:48.930Z,5.63
2022-11-29T15:24:32.493Z,5.56
2022-11-29T15:27:19.925Z,5.36
2022-11-29T15:30:37.015Z,5.42
2022-11-29T15:33:25.931Z,5.58
2022-11-29T15:36:20.996Z,5.52
2022-11-29T15:39:04.568Z,5.55
2022-11-29T15:41:48.007Z,5.64
2022-11-29T15:44:32.911Z,5.54
2022-11-29T15:47:25.878Z,5.59
2022-11-29T15:50:33.570Z,5.36
2022-11-29T15:53:27.612Z,5.54
2022-11-29T15:56:39.610Z,5.34
2022-11-29T15:59:58.588Z,5.37
2022-11-29T16:02:58.173Z,5.44
2022-11-29T16:05:42.310Z,5.25
2022-11-29T16:08:33.280Z,5.36
2022-11-29T16:11:21.107Z,5.70
2022-11-29T16:14:16.858Z,5.22
2022-11-29T16:17:02.530Z,5.29
2022-11-29T16:19:47.139Z,5.21
2022-11-29T16:22:32.302Z,5.26
2022-11-29T16:25:20.102Z,5.03
2022-11-29T16:28:04.281Z,5.06
2022-11-29T16:30:48.257Z,5.31
2022-11-29T16:33:32.725Z,5.33
2022-11-29T16:36:20.174Z,5.17
2022-11-29T16:39:21.935Z,5.29
2022-11-29T16:42:26.372Z,5.34
2022-11-29T16:45:34.565Z,5.37
2022-11-29T16:48:25.617Z,5.31
2022-11-29T16:51:14.940Z,5.20
2022-11-29T16:54:20.480Z,5.24
2022-11-29T16:57:06.454Z,5.25
2022-11-29T16:59:50.925Z,5.40
2022-11-29T17:02:34.423Z,5.25
2022-11-29T17:05:18.142Z,5.26
2022-11-29T17:08:01.848Z,5.28
2022-11-29T17:10:45.420Z,5.20
2022-11-29T17:13:29.045Z,5.17
2022-11-29T17:16:19.453Z,5.37
2022-11-29T17:19:03.257Z,5.35
2022-11-29T17:21:46.844Z,5.35
2022-11-29T17:24:30.692Z,5.32
2022-11-29T17:27:14.306Z,5.34
2022-11-29T17:30:05.947Z,5.30
2022-11-29T17:33:02.959Z,5.23
2022-11-29T17:35:47.554Z,5.25
2022-11-29T17:38:31.022Z,5.26
2022-11-29T17:41:22.515Z,5.15
2022-11-29T17:44:05.950Z,5.22
2022-11-29T17:46:49.425Z,5.07
2022-11-29T17:49:32.907Z,5.03
2022-11-29T17:52:16.434Z,4.96
2022-11-29T17:54:59.880Z,5.15
2022-11-29T17:57:43.481Z,5.11
2022-11-29T18:00:27.082Z,5.12
2022-11-29T18:03:10.529Z,5.18
2022-11-29T18:05:57.567Z,5.16
2022-11-29T18:08:45.021Z,4.95
2022-11-29T18:11:46.893Z,5.06
2022-11-29T18:14:32.791Z,5.00
2022-11-29T18:17:16.766Z,5.08
2022-11-29T18:20:00.224Z,4.98
2022-11-29T18:22:43.796Z,5.13
2022-11-29T18:25:42.654Z,5.01
2022-11-29T18:28:29.088Z,4.89
2022-11-29T18:31:28.391Z,4.97
2022-11-29T18:34:14.098Z,5.09
2022-11-29T18:36:57.881Z,5.09
2022-11-29T18:39:41.307Z,4.94
2022-11-29T18:42:24.751Z,5.11
2022-11-29T18:45:08.432Z,4.86
2022-11-29T18:47:51.889Z,4.96
2022-11-29T18:50:35.362Z,5.02
2022-11-29T18:53:18.839Z,4.92
2022-11-29T18:56:13.501Z,4.97
2022-11-29T18:59:00.621Z,5.11
2022-11-29T19:01:47.554Z,5.19
2022-11-29T19:04:31.612Z,5.10
2022-11-29T19:07:15.146Z,5.09
2022-11-29T19:09:58.629Z,5.12
2022-11-29T19:12:42.113Z,5.00
2022-11-29T19:15:25.616Z,4.85
2022-11-29T19:18:09.084Z,5.04
2022-11-29T19:20:53.652Z,5.04
2022-11-29T19:23:37.988Z,4.97
2022-11-29T19:26:22.962Z,4.98
2022-11-29T19:29:06.711Z,5.18
2022-11-29T19:31:50.581Z,5.16
2022-11-29T19:34:34.056Z,4.97
2022-11-29T19:37:17.508Z,4.90
2022-11-29T19:40:01.001Z,4.95
2022-11-29T19:42:50.749Z,5.14
2022-11-29T19:45:34.561Z,4.98
2022-11-29T19:48:18.016Z,5.00
2022-11-29T19:51:01.517Z,5.07
2022-11-29T19:53:46.529Z,4.99
2022-11-29T19:56:31.697Z,4.93
2022-11-29T19:59:15.289Z,5.02
2022-11-29T20:01:59.180Z,5.01
2022-11-29T20:04:43.439Z,4.94
2022-11-29T20:07:27.021Z,5.00
2022-11-29T20:10:10.960Z,4.80
2022-11-29T20:12:55.156Z,4.93
2022-11-29T20:15:38.663Z,4.77
2022-11-29T20:18:22.179Z,4.94
2022-11-29T20:21:08.247Z,4.91
2022-11-29T20:24:01.029Z,4.95
2022-11-29T20:26:47.633Z,4.97
2022-11-29T20:29:33.011Z,4.88
2022-11-29T20:32:17.763Z,5.08
2022-11-29T20:35:02.654Z,5.03
2022-11-29T20:38:22.614Z,5.14
2022-11-29T20:41:29.178Z,5.12
2022-11-29T20:44:21.387Z,5.01
2022-11-29T20:47:18.620Z,4.93
2022-11-29T20:50:02.443Z,4.78
2022-11-29T20:53:26.648Z,4.89
2022-11-29T20:56:12.161Z,4.80
2022-11-29T20:58:56.402Z,4.79
2022-11-29T21:01:39.873Z,4.86
2022-11-29T21:04:23.807Z,4.87
2022-11-29T21:07:07.326Z,5.00
2022-11-29T21:09:50.756Z,4.95
2022-11-29T21:12:35.118Z,4.98
2022-11-29T21:15:19.185Z,4.96
2022-11-29T21:18:02.953Z,5.00
2022-11-29T21:21:24.812Z,4.96
2022-11-29T21:24:46.035Z,4.82
2022-11-29T21:27:33.986Z,4.82
2022-11-29T21:30:24.366Z,4.64
2022-11-29T21:33:08.952Z,4.90
2022-11-29T21:35:58.013Z,4.91
2022-11-29T21:38:41.881Z,5.03
2022-11-29T21:41:25.322Z,4.78
2022-11-29T21:44:08.980Z,4.78
2022-11-29T21:46:52.581Z,4.94
2022-11-29T21:49:36.486Z,4.95
2022-11-29T21:52:22.784Z,4.89
2022-11-29T21:55:07.169Z,4.78
2022-11-29T21:57:50.605Z,4.95
2022-11-29T22:00:37.398Z,5.00
2022-11-29T22:03:21.565Z,5.03
2022-11-29T22:06:09.130Z,4.88
2022-11-29T22:08:53.022Z,4.86
2022-11-29T22:11:36.603Z,4.83
2022-11-29T22:14:20.127Z,4.78
2022-11-29T22:17:03.527Z,4.92
2022-11-29T22:19:46.918Z,4.87
2022-11-29T22:22:31.391Z,4.78
2022-11-29T22:25:15.797Z,4.95
2022-11-29T22:27:59.256Z,4.89
2022-11-29T22:30:42.681Z,5.00
2022-11-29T22:33:26.491Z,4.98
2022-11-29T22:36:12.606Z,4.97
2022-11-29T22:38:58.545Z,4.97
2022-11-29T22:41:42.993Z,5.04
2022-11-29T22:44:26.568Z,4.93
2022-11-29T22:47:10.025Z,4.93
2022-11-29T22:49:53.646Z,4.80
2022-11-29T22:52:37.666Z,4.84
2022-11-29T22:55:22.914Z,4.82
2022-11-29T22:58:06.550Z,4.95
2022-11-29T23:00:50.079Z,4.88
2022-11-29T23:03:39.526Z,5.00
2022-11-29T23:06:32.633Z,4.92
2022-11-29T23:09:21.727Z,5.08
2022-11-29T23:12:05.363Z,5.04
2022-11-29T23:14:54.546Z,5.00
2022-11-29T23:17:39.681Z,4.81
2022-11-29T23:20:23.138Z,4.92
2022-11-29T23:23:06.758Z,4.86
2022-11-29T23:25:50.711Z,5.11
2022-11-29T23:28:35.903Z,5.16
2022-11-29T23:31:21.518Z,4.89
2022-11-29T23:34:05.584Z,4.93
2022-11-29T23:36:52.977Z,4.74
2022-11-29T23:39:36.736Z,4.80
2022-11-29T23:42:20.358Z,4.84
2022-11-29T23:45:04.131Z,4.82
2022-11-29T23:47:47.574Z,4.88
2022-11-29T23:50:30.990Z,4.72
2022-11-29T23:53:18.090Z,4.72
2022-11-29T23:56:15.333Z,4.78
2022-11-29T23:58:58.753Z,5.04
